• Join FlightAware (Why Join?)
  • Login
  • US Flag 
11:38AM EDT


 

Airport Tracker/Info


-or-


 

Live Flight TrackerFlight Track Log ✈ TCF3494 ✈ 19-Nov-2013 ✈ KSLC - KORD

Flight Track Log - Related Links

Times and Time Zones

All times are in EST time to prevent confusion due to time zone crossing. See the TCF3494 flight status page for this flight to view local times or setup timezone preferences in your user account.

Time Position Orientation Groundspeed Altitude Reporting Facility
EST Latitude Longitude Course Direction KTS MPH feet Rate Location/Type
06:17PM 40.7692 -111.9750 90° East 172 198 5,100  Level Salt Lake Center
06:18PM 40.7497 -112.0411 249° West 210 242 6,800 1,620 Climbing Salt Lake Center
06:19PM 40.7611 -112.0744 294° West 222 255 7,800 2,400 Climbing Salt Lake Center
06:19PM 40.7967 -112.1044 327° Northwest 257 296 9,300 2,040 Climbing Salt Lake Center
06:20PM 41.0167 -111.7622 90° East  Level FlightAware Approximate
06:20PM 40.8267 -112.0953 13° North 274 315 9,900  Level Salt Lake Center
06:21PM 41.0179 -111.6094 78° East  Level FlightAware Approximate
06:21PM 40.8653 -112.0011 62° Northeast 300 345 11,300  Level Salt Lake Center
06:22PM 41.0334 -111.4587 90° East  Level FlightAware Approximate
06:22PM 40.9053 -111.9047 61° Northeast 299 344 13,700  Level Salt Lake Center
06:23PM 40.9450 -111.7761 68° East 329 379 15,800 1,680 Climbing Salt Lake Center
06:24PM 40.9761 -111.6508 72° East 368 423 17,200 1,560 Climbing Salt Lake Center
06:25PM 41.0097 -111.5133 72° East 395 455 19,100 1,680 Climbing Salt Lake Center
06:26PM 41.0453 -111.3706 72° East 411 473 20,700 1,560 Climbing Salt Lake Center
06:28PM 41.1239 -111.0392 72° East 437 503 24,000 1,500 Climbing Salt Lake Center
06:29PM 41.1617 -110.8836 72° East 452 520 25,500 1,440 Climbing Salt Lake Center
06:30PM 41.1986 -110.7283 72° East 459 528 27,000 1,320 Climbing Salt Lake Center
06:31PM 41.2417 -110.5453 73° East 466 536 28,300 1,080 Climbing Salt Lake Center
06:32PM 41.2794 -110.3853 73° East 473 544 29,300 1,020 Climbing Salt Lake Center
06:33PM 41.3231 -110.1944 73° East 482 555 30,500 1,200 Climbing Salt Lake Center
06:34PM 41.3611 -110.0328 73° East 479 551 31,800 1,140 Climbing Salt Lake Center
06:35PM 41.4047 -109.8433 73° East 480 552 32,900 960 Climbing Salt Lake Center
06:36PM 41.4417 -109.6811 73° East 478 550 33,900 840 Climbing Salt Lake Center
06:37PM 41.4778 -109.5189 73° East 477 549 34,700 480 Climbing Salt Lake Center
06:38PM 41.5219 -109.3264 73° East 482 555 35,000 120 Climbing Salt Lake Center
06:39PM 41.5608 -109.1525 73° East 497 572 35,000  Level Salt Lake Center
06:41PM 41.6150 -108.7947 78° East 506 582 35,000  Level Denver Center
06:42PM 41.6378 -108.6172 80° East 504 580 35,000  Level Denver Center
06:43PM 41.6642 -108.4114 80° East 503 579 35,000  Level Denver Center
06:44PM 41.6861 -108.2347 80° East 504 580 35,000  Level Denver Center
06:46PM 41.7131 -108.0303 80° East 502 578 35,000  Level Salt Lake Center
06:47PM 41.7383 -107.8244 81° East 503 579 35,000  Level Salt Lake Center
06:47PM 41.7550 -107.6764 81° East 501 577 35,000  Level Denver Center
06:48PM 41.7792 -107.4706 81° East 502 578 35,000  Level Denver Center
06:49PM 41.8006 -107.2936 81° East 503 579 35,000  Level Denver Center
06:51PM 41.8239 -107.0886 81° East 500 575 35,000  Level Denver Center
06:52PM 41.8431 -106.9125 82° East 499 574 35,000  Level Denver Center
06:53PM 41.8667 -106.7089 81° East 496 571 35,000  Level Denver Center
06:54PM 41.8867 -106.5333 81° East 498 573 35,000  Level Denver Center
06:55PM 41.9092 -106.3344 81° East 490 564 35,000  Level Denver Center
06:56PM 41.9275 -106.1628 82° East 486 559 35,000  Level Denver Center
06:57PM 41.9464 -105.9592 83° East 491 565 35,000  Level Denver Center
06:58PM 41.9653 -105.7889 81° East 484 557 35,000  Level Denver Center
06:59PM 41.9825 -105.6194 82° East 481 554 35,000  Level Denver Center
07:00PM 42.0031 -105.4206 82° East 482 555 35,000  Level Denver Center
07:01PM 42.0189 -105.2533 83° East 476 548 35,000  Level Denver Center
07:02PM 42.0375 -105.0525 83° East 484 557 35,000  Level Denver Center
07:03PM 42.0542 -104.8811 82° East 485 558 35,000  Level Denver Center
07:04PM 42.0722 -104.6797 83° East 488 562 35,000  Level Denver Center
07:05PM 42.0883 -104.5064 83° East 490 564 35,000  Level Denver Center
07:06PM 42.1067 -104.3000 83° East 499 574 35,000  Level Denver Center
07:07PM 42.1222 -104.1214 83° East 504 580 35,000  Level Denver Center
07:08PM 42.1408 -103.9142 83° East 503 579 35,000  Level Denver Center
07:09PM 42.1572 -103.7361 83° East 503 579 35,000  Level Denver Center
07:10PM 42.1736 -103.5281 84° East 502 578 35,000  Level Denver Center
07:11PM 42.1883 -103.3494 84° East 503 579 35,000  Level Denver Center
07:12PM 42.2014 -103.1733 84° East 496 571 35,000  Level Denver Center
07:13PM 42.2183 -102.9658 84° East 498 573 35,000  Level Denver Center
07:14PM 42.2317 -102.7872 84° East 500 575 35,000  Level Denver Center
07:15PM 42.2481 -102.5800 84° East 499 574 35,000  Level Denver Center
07:16PM 42.2614 -102.4039 84° East 495 570 35,000  Level Denver Center
07:17PM 42.2753 -102.1961 85° East 498 573 35,000 180 Level Denver Center
07:18PM 42.2881 -102.0186 84° East 496 571 35,400 540 Climbing Denver Center
07:19PM 42.3019 -101.8269 84° East 492 566 36,200 720 Climbing Denver Center
07:20PM 42.3133 -101.6544 85° East 484 557 36,900 360 Climbing Denver Center
07:21PM 42.3269 -101.4497 85° East 489 563 37,000  Climbing Denver Center
07:22PM 42.3383 -101.2719 85° East 493 567 37,000  Level Denver Center
07:23PM 42.3503 -101.0636 85° East 497 572 37,000  Level Denver Center
07:24PM 42.3611 -100.8883 85° East 491 565 37,000  Level Denver Center
07:26PM 42.3719 -100.6811 86° East 494 568 37,000  Level Denver Center
07:27PM 42.3828 -100.5075 85° East 488 562 37,000  Level Denver Center
07:28PM 42.3922 -100.3314 86° East 490 564 37,000  Level Denver Center
07:29PM 42.4042 -100.1233 85° East 494 568 37,000  Level Denver Center
07:30PM 42.4139 -99.9456 86° East 495 570 37,000  Level Denver Center
07:31PM 42.4231 -99.7386 86° East 494 568 37,000  Level Denver Center
07:32PM 42.4317 -99.5628 86° East 494 568 37,000  Level Denver Center
07:33PM 42.4397 -99.3792 87° East 489 563 37,000  Level Denver Center
07:34PM 42.4478 -99.2086 86° East 462 532 37,000  Level Denver Center
07:35PM 42.4561 -99.0353 86° East 459 528 37,000  Level Denver Center
07:36PM 42.4642 -98.8219 87° East 469 540 37,000  Level Denver Center
07:37PM 42.4717 -98.6464 87° East 468 539 37,000  Level Denver Center
07:38PM 42.4850 -98.3989 86° East 470 541 37,000  Level Minneapolis Center
07:39PM 42.4933 -98.2217 86° East 470 541 37,000  Level Minneapolis Center
07:40PM 42.5011 -98.0453 87° East 469 540 37,000  Level Minneapolis Center
07:41PM 42.5106 -97.8311 87° East 473 544 37,000  Level Minneapolis Center
07:42PM 42.5181 -97.6664 86° East 472 543 37,000  Level Minneapolis Center
07:44PM 42.5258 -97.4886 87° East 473 544 37,000  Level Minneapolis Center
07:45PM 42.5328 -97.3103 87° East 473 544 37,000  Level Minneapolis Center
07:46PM 42.5397 -97.1308 87° East 476 548 37,000  Level Minneapolis Center
07:47PM 42.5472 -96.9178 87° East 473 544 37,000  Level Minneapolis Center
07:48PM 42.5533 -96.7406 87° East 471 542 37,000  Level Minneapolis Center
07:49PM 42.5597 -96.5611 87° East 473 544 37,000  Level Minneapolis Center
07:50PM 42.5653 -96.3825 88° East 473 544 37,000  Level Minneapolis Center
07:51PM 42.5708 -96.2031 88° East 475 547 37,000  Level Minneapolis Center
07:52PM 42.5758 -96.0233 88° East 475 547 37,000  Level Minneapolis Center
07:53PM 42.5806 -95.8456 88° East 472 543 37,000  Level Minneapolis Center
07:54PM 42.5853 -95.6292 88° East 475 547 37,000  Level Minneapolis Center
07:55PM 42.5894 -95.4472 88° East 480 552 37,000  Level Minneapolis Center
07:56PM 42.5936 -95.2694 88° East 472 543 37,000  Level Minneapolis Center
07:57PM 42.5981 -95.0914 88° East 472 543 37,000  Level Minneapolis Center
07:58PM 42.6006 -94.9094 89° East 477 549 37,000  Level Minneapolis Center
07:59PM 42.6033 -94.7231 89° East 487 560 37,000  Level Minneapolis Center
08:00PM 42.6058 -94.5325 89° East 496 571 37,000  Level Minneapolis Center
08:01PM 42.6081 -94.3481 89° East 496 571 37,000  Level Minneapolis Center
08:02PM 42.6053 -94.1275 91° East 492 566 37,000  Level Minneapolis Center
08:03PM 42.5989 -93.9447 93° East 490 564 37,000  Level Minneapolis Center
08:04PM 42.5928 -93.7592 92° East 495 570 37,000  Level Minneapolis Center
08:05PM 42.5872 -93.5756 92° East 493 567 37,000  Level Minneapolis Center
08:06PM 42.5811 -93.3908 93° East 493 567 37,000  Level Minneapolis Center
08:07PM 42.5742 -93.2083 93° East 490 564 37,000  Level Minneapolis Center
08:08PM 42.5642 -92.9883 93° East 491 565 37,000  Level Minneapolis Center
08:09PM 42.5564 -92.8044 93° East 493 567 37,000  Level Minneapolis Center
08:10PM 42.5492 -92.6206 93° East 493 567 37,000 -540 Level Minneapolis Center
08:11PM 42.5414 -92.4381 93° East 491 565 36,000 -1,080 Descending Minneapolis Center
08:12PM 42.5328 -92.2536 94° East 493 567 34,900 -1,140 Descending Minneapolis Center
08:13PM 42.5236 -92.0325 93° East 496 571 33,700 -1,080 Descending Minneapolis Center
08:14PM 42.5250 -91.8508 89° East 492 566 32,700 -840 Descending Minneapolis Center
08:15PM 42.5256 -91.6700 90° East 491 565 32,000 -720 Descending Minneapolis Center
08:17PM 42.5261 -91.4869 90° East 496 571 31,300 -960 Descending Minneapolis Center
08:18PM 42.5264 -91.2614 90° East 505 581 30,100 -1,140 Descending Minneapolis Center
08:19PM 42.5253 -91.0733 90° East 507 583 29,000 -1,020 Descending Minneapolis Center
08:20PM 42.5256 -90.8861 90° East 505 581 28,000 -1,020 Descending Minneapolis Center
08:21PM 42.5244 -90.7050 90° East 497 572 27,000 -1,020 Descending Minneapolis Center
08:22PM 42.5236 -90.4558 90° East 476 548 25,700 -960 Descending Chicago Center
08:23PM 42.5167 -90.2850 93° East 468 539 24,900 -840 Descending Chicago Center
08:24PM 42.5072 -90.1139 94° East 461 531 24,000 -480 Descending Chicago Center
08:25PM 42.4981 -89.9450 94° East 455 524 24,000  Level Chicago Center
08:26PM 42.4869 -89.7697 95° East 457 526 24,000  Level Chicago Center
08:27PM 42.4775 -89.5997 94° East 457 526 24,000 -1,260 Level Chicago Center
08:28PM 42.4653 -89.3975 95° East 454 522 21,400 -2,340 Descending Chicago Center
08:29PM 42.4561 -89.2383 94° East 435 501 19,200 -2,040 Descending Chicago Center
08:30PM 42.4467 -89.0850 95° East 419 482 17,300 -2,160 Descending Chicago Center
08:31PM 42.4372 -88.9361 95° East 406 467 14,800 -2,160 Descending Chicago Center
08:32PM 42.4286 -88.7931 95° East 392 451 12,900 -1,860 Descending Chicago Center
08:33PM 42.4147 -88.6278 96° East 376 433 11,000 -960 Descending Chicago Center
08:34PM 42.3761 -88.5050 113° Southeast 358 412 11,000 -300 Level Chicago Center
08:35PM 42.3369 -88.3811 113° Southeast 360 414 10,400 -540 Descending Chicago Center
08:36PM 42.2769 -88.2836 130° Southeast 348 400 10,000 -300 Descending Chicago Center
08:37PM 42.2197 -88.1858 128° Southeast 337 388 9,900 -960 Descending Chicago Center
08:38PM 42.1536 -88.0975 135° Southeast 285 328 8,100 -1,140 Descending Chicago Center
08:39PM 42.1011 -88.0383 140° Southeast 252 290 7,600 -540 Descending Chicago Center
08:41PM 42.0917 -87.9656 100° East 203 234 7,100 -300 Descending Chicago Center
08:42PM 42.0911 -87.8947 91° East 191 220 7,000 -60 Descending Chicago Center
08:43PM 42.0914 -87.8208 90° East 194 223 7,000 -480 Level Chicago Center
08:44PM 42.0911 -87.7500 90° East 191 220 6,100 -1,320 Descending Chicago Center
08:45PM 42.0678 -87.6947 120° Southeast 174 200 4,300 -1,440 Descending Chicago Center
08:46PM 42.0167 -87.7333 209° Southwest 174 200 2,700 -900 Descending Chicago TRACON
08:47PM 42.0000 -87.8000 251° West 180 207 2,200 -720 Descending Chicago TRACON
08:48PM 42.0000 -87.8500 270° West 156 180 1,300 -900 Descending Chicago TRACON